Columbus, Ohio
Traffic Map
Current Weather Conditions
Columbus, Ohio
Scattered Clouds
Scattered Clouds
28°
Feels Like: 28°
Wind Chill: 28° Ceiling: Unl
Heat Index: 28° Visibility: 10mi
Dew Point: 16° Wind: 7mph
Humidity: 46% Direction: 350° (N)
Pressure: 30.05in Gusts: 0mph
Raw Report DataKCMH 012251Z 35006KT 10SM SCT060 SCT250 28/16 A3005 RMK AO2 SLP171 T02830156
Traffic Incident Summary
Active as of:
Severity:
Category:
InformationThere was an issue retrieving the traffic information for this location. Please try a different location or try again shortly.
Advertisements
Track Severe Weather on mobile